Time;durP1;ratioP1;P1;durP2;ratioP2;P2;SDS_P1;SDS_P2;PMS_P1;PMS_P2;Temp;Humidity;BMP_temperature;BMP_pressure;BME280_temperature;BME280_humidity;BME280_pressure;Samples;Min_cycle;Max_cycle;Signal;HPM_P1;HPM_P2
2024/03/20 00:00:17;;;;;;;64.60;36.13;;;;;;;;;;2094617;28;20084;-82
2024/03/20 00:01:19;;;;;;;58.58;35.95;;;;;;;;;;2079484;28;20140;-82
2024/03/20 00:02:19;;;;;;;59.20;35.70;;;;;;;;;;2092262;28;20091;-82
2024/03/20 00:03:20;;;;;;;;;;;;;;;;;;2095536;28;20093;-83
2024/03/20 00:04:23;;;;;;;61.27;36.67;;;;;;;;;;2094355;28;20022;-84
2024/03/20 00:05:24;;;;;;;60.80;37.10;;;;;;;;;;2095954;28;20178;-83
2024/03/20 00:06:25;;;;;;;;;;;;;;;;;;2094796;28;20045;-83
2024/03/20 00:07:26;;;;;;;55.72;34.25;;;;;;;;;;2097648;28;20430;-83
2024/03/20 00:08:27;;;;;;;;;;;;;;;;;;2096541;28;20131;-83
2024/03/20 00:09:28;;;;;;;57.65;34.67;;;;;;;;;;2091503;28;20330;-83
2024/03/20 00:10:29;;;;;;;;;;;;;;;;;;2093705;28;20117;-83
2024/03/20 00:11:30;;;;;;;59.45;34.35;;;;;;;;;;2097123;28;19924;-84
2024/03/20 00:12:31;;;;;;;;;;;;;;;;;;2096276;28;20080;-86
2024/03/20 00:13:32;;;;;;;59.03;34.85;;;;;;;;;;2096360;28;20016;-83
2024/03/20 00:14:34;;;;;;;60.90;36.95;;;;;;;;;;2092254;28;20052;-83
2024/03/20 00:15:35;;;;;;;62.65;37.42;;;;;;;;;;2091351;28;20075;-83
2024/03/20 00:16:37;;;;;;;61.63;36.20;;;;;;;;;;2093282;28;20064;-82
2024/03/20 00:17:38;;;;;;;57.47;35.78;;;;;;;;;;2096267;28;20041;-83
2024/03/20 00:18:39;;;;;;;;;;;;;;;;;;2095028;28;20079;-83
2024/03/20 00:19:41;;;;;;;60.33;35.85;;;;;;;;;;2094694;28;19978;-84
2024/03/20 00:20:43;;;;;;;65.78;38.80;;;;;;;;;;2095950;28;20049;-83
2024/03/20 00:21:45;;;;;;;62.65;35.55;;;;;;;;;;2094931;28;20048;-83
2024/03/20 00:22:47;;;;;;;60.58;36.65;;;;;;;;;;2095026;28;20051;-83
2024/03/20 00:23:47;;;;;;;60.88;37.00;;;;;;;;;;2095756;28;20055;-84
2024/03/20 00:24:49;;;;;;;;;;;;;;;;;;2094331;28;20045;-83
2024/03/20 00:25:50;;;;;;;62.75;36.83;;;;;;;;;;2091822;28;19925;-84
2024/03/20 00:26:50;;;;;;;61.75;37.50;;;;;;;;;;2092509;28;20067;-83
2024/03/20 00:27:52;;;;;;;;;;;;;;;;;;2095598;28;20048;-83
2024/03/20 00:28:52;;;;;;;60.10;36.03;;;;;;;;;;2092698;28;19947;-84
2024/03/20 00:29:54;;;;;;;;;;;;;;;;;;2094499;28;20090;-83
2024/03/20 00:30:55;;;;;;;59.80;34.78;;;;;;;;;;2094300;28;19931;-84
2024/03/20 00:31:56;;;;;;;;;;;;;;;;;;2094280;28;20071;-83
2024/03/20 00:32:57;;;;;;;57.92;35.92;;;;;;;;;;2093926;28;19971;-83
2024/03/20 00:33:58;;;;;;;;;;;;;;;;;;2095604;28;20421;-82
2024/03/20 00:35:00;;;;;;;60.08;35.58;;;;;;;;;;2098448;28;19923;-84
2024/03/20 00:36:02;;;;;;;56.20;33.40;;;;;;;;;;2094988;28;20650;-82
2024/03/20 00:37:02;;;;;;;61.63;37.42;;;;;;;;;;2093788;28;20048;-83
2024/03/20 00:38:04;;;;;;;;;;;;;;;;;;2095850;28;20040;-82
2024/03/20 00:39:06;;;;;;;60.78;36.72;;;;;;;;;;2095696;28;19950;-83
2024/03/20 00:40:09;;;;;;;57.55;35.08;;;;;;;;;;2096431;28;20045;-85
2024/03/20 00:41:10;;;;;;;54.45;34.35;;;;;;;;;;2095311;28;20126;-83
2024/03/20 00:42:11;;;;;;;;;;;;;;;;;;2094081;28;20044;-83
2024/03/20 00:43:12;;;;;;;58.00;34.53;;;;;;;;;;2089881;28;19931;-83
2024/03/20 00:44:13;;;;;;;54.63;34.70;;;;;;;;;;2094734;28;20040;-84
2024/03/20 00:45:15;;;;;;;;;;;;;;;;;;2094398;28;20072;-82
2024/03/20 00:46:15;;;;;;;54.75;33.95;;;;;;;;;;2093978;28;19932;-82
2024/03/20 00:47:18;;;;;;;;;;;;;;;;;;2096000;28;20059;-84
2024/03/20 00:48:20;;;;;;;58.92;34.63;;;;;;;;;;2094275;28;20618;-83
2024/03/20 00:49:20;;;;;;;53.83;33.78;;;;;;;;;;2094154;28;20060;-86
2024/03/20 00:50:23;;;;;;;;;;;;;;;;;;2094628;28;20485;-83
2024/03/20 00:51:24;;;;;;;56.97;33.42;;;;;;;;;;2093877;28;20243;-84
2024/03/20 00:52:25;;;;;;;;;;;;;;;;;;2096268;28;20074;-83
2024/03/20 00:53:26;;;;;;;56.90;34.28;;;;;;;;;;2093306;28;20385;-82
2024/03/20 00:54:27;;;;;;;;;;;;;;;;;;2095074;28;20076;-82
2024/03/20 00:55:28;;;;;;;67.05;35.03;;;;;;;;;;2095056;28;19959;-84
2024/03/20 00:56:28;;;;;;;;;;;;;;;;;;2094907;28;20076;-83
2024/03/20 00:57:30;;;;;;;52.43;33.13;;;;;;;;;;2092775;28;19920;-82
2024/03/20 00:58:32;;;;;;;54.35;33.45;;;;;;;;;;2093314;28;20095;-82
2024/03/20 00:59:34;;;;;;;57.08;34.70;;;;;;;;;;2094041;28;20516;-82
2024/03/20 01:00:35;;;;;;;56.58;35.58;;;;;;;;;;2096439;28;20044;-83
2024/03/20 01:01:35;;;;;;;;;;;;;;;;;;2096703;28;20509;-83
2024/03/20 01:02:37;;;;;;;55.00;33.73;;;;;;;;;;2093318;28;20167;-82
2024/03/20 01:03:38;;;;;;;54.88;32.90;;;;;;;;;;2094538;28;20055;-83
2024/03/20 01:04:39;;;;;;;;;;;;;;;;;;2093491;28;20044;-83
2024/03/20 01:05:41;;;;;;;54.63;33.45;;;;;;;;;;2094910;28;19943;-83
2024/03/20 01:06:43;;;;;;;56.53;33.55;;;;;;;;;;2094472;28;20098;-83
2024/03/20 01:07:43;;;;;;;54.88;33.17;;;;;;;;;;2092976;28;20048;-84
2024/03/20 01:08:45;;;;;;;;;;;;;;;;;;2094447;28;20116;-83
2024/03/20 01:09:45;;;;;;;57.33;33.47;;;;;;;;;;2094121;28;19925;-83
2024/03/20 01:10:47;;;;;;;;;;;;;;;;;;2093049;28;20076;-83
2024/03/20 01:11:48;;;;;;;51.95;31.23;;;;;;;;;;2095908;28;20340;-83
2024/03/20 01:12:50;;;;;;;;;;;;;;;;;;2097085;28;20045;-83
2024/03/20 01:13:51;;;;;;;50.10;29.55;;;;;;;;;;2094987;28;20345;-83
2024/03/20 01:14:52;;;;;;;;;;;;;;;;;;2097181;28;20044;-83
2024/03/20 01:15:53;;;;;;;50.65;31.13;;;;;;;;;;2093212;28;19924;-83
2024/03/20 01:16:54;;;;;;;;;;;;;;;;;;2096732;28;20090;-84
2024/03/20 01:17:55;;;;;;;53.53;31.40;;;;;;;;;;2095063;28;19924;-83
2024/03/20 01:18:56;;;;;;;;;;;;;;;;;;2096766;28;20070;-83
2024/03/20 01:19:57;;;;;;;53.13;31.02;;;;;;;;;;2098400;28;19956;-84
2024/03/20 01:20:59;;;;;;;;;;;;;;;;;;2095796;28;20053;-83
2024/03/20 01:22:00;;;;;;;47.35;29.48;;;;;;;;;;2094339;28;20434;-83
2024/03/20 01:23:01;;;;;;;;;;;;;;;;;;2094463;28;20109;-84
2024/03/20 01:24:02;;;;;;;51.15;30.77;;;;;;;;;;2096680;28;19927;-84
2024/03/20 01:25:03;;;;;;;;;;;;;;;;;;2095175;28;20069;-84
2024/03/20 01:26:04;;;;;;;53.17;30.30;;;;;;;;;;2092861;28;19927;-83
2024/03/20 01:27:06;;;;;;;55.53;32.20;;;;;;;;;;2095192;28;20093;-83
2024/03/20 01:28:07;;;;;;;52.63;32.10;;;;;;;;;;2094313;28;20160;-83
2024/03/20 01:29:08;;;;;;;51.63;31.17;;;;;;;;;;2093257;28;20098;-83
2024/03/20 01:30:10;;;;;;;;;;;;;;;;;;2099991;28;20107;-82
2024/03/20 01:31:10;;;;;;;50.67;30.38;;;;;;;;;;2096819;28;19990;-82
2024/03/20 01:32:11;;;;;;;;;;;;;;;;;;2097593;28;20052;-83
2024/03/20 01:33:12;;;;;;;48.73;30.57;;;;;;;;;;2096360;28;19916;-82
2024/03/20 01:34:13;;;;;;;51.72;31.30;;;;;;;;;;2094909;28;20052;-83
2024/03/20 01:35:14;;;;;;;;;;;;;;;;;;2098327;28;20053;-82
2024/03/20 01:36:16;;;;;;;50.53;30.27;;;;;;;;;;2097509;28;19919;-79
2024/03/20 01:37:18;;;;;;;50.05;30.77;;;;;;;;;;2096142;28;20523;-83
2024/03/20 01:38:18;;;;;;;50.95;30.35;;;;;;;;;;2095200;28;20093;-85
2024/03/20 01:39:21;;;;;;;;;;;;;;;;;;2095051;28;20061;-84
2024/03/20 01:40:21;;;;;;;54.65;31.45;;;;;;;;;;2096835;28;20281;-82
2024/03/20 01:41:23;;;;;;;;;;;;;;;;;;2097562;28;20044;-82
2024/03/20 01:42:23;;;;;;;51.22;29.70;;;;;;;;;;2096136;28;19951;-83
2024/03/20 01:43:24;;;;;;;;;;;;;;;;;;2095715;28;20508;-81
2024/03/20 01:44:26;;;;;;;50.97;29.92;;;;;;;;;;2096454;28;20051;-83
2024/03/20 01:45:28;;;;;;;50.75;30.83;;;;;;;;;;2094516;28;20054;-83
2024/03/20 01:46:30;;;;;;;54.45;31.08;;;;;;;;;;2095501;28;20040;-83
2024/03/20 01:47:31;;;;;;;51.55;31.17;;;;;;;;;;2095615;28;20060;-84
2024/03/20 01:48:32;;;;;;;;;;;;;;;;;;2096844;28;20056;-83
2024/03/20 01:49:34;;;;;;;49.95;30.85;;;;;;;;;;2091829;28;19924;-83
2024/03/20 01:50:35;;;;;;;49.35;30.88;;;;;;;;;;2095612;28;20490;-83
2024/03/20 01:51:37;;;;;;;;;;;;;;;;;;2096454;28;20052;-83
2024/03/20 01:52:49;;;;;;;51.63;30.10;;;;;;;;;;2094697;28;19936;-81
2024/03/20 01:53:51;;;;;;;52.90;30.90;;;;;;;;;;2095926;28;20047;-84
2024/03/20 01:54:51;;;;;;;52.10;31.58;;;;;;;;;;2095120;28;20066;-80
2024/03/20 01:55:53;;;;;;;;;;;;;;;;;;2096920;28;20132;-80
2024/03/20 01:56:54;;;;;;;46.85;28.88;;;;;;;;;;2097209;28;20458;-83
2024/03/20 01:57:56;;;;;;;48.95;30.17;;;;;;;;;;2093074;28;20147;-84
2024/03/20 01:58:57;;;;;;;50.03;31.67;;;;;;;;;;2092639;28;20060;-84
2024/03/20 01:59:58;;;;;;;;;;;;;;;;;;2093950;28;20160;-81
2024/03/20 02:00:59;;;;;;;54.78;29.17;;;;;;;;;;2093967;28;20365;-81
2024/03/20 02:01:59;;;;;;;;;;;;;;;;;;2095972;28;20083;-81
2024/03/20 02:03:02;;;;;;;50.63;30.67;;;;;;;;;;2094282;28;19969;-80
2024/03/20 02:04:04;;;;;;;49.38;30.85;;;;;;;;;;2095892;28;20052;-84
2024/03/20 02:05:06;;;;;;;51.75;31.02;;;;;;;;;;2097270;28;20055;-83
2024/03/20 02:06:19;;;;;;;51.13;31.67;;;;;;;;;;2095886;28;20562;-83
2024/03/20 02:07:22;;;;;;;52.08;32.45;;;;;;;;;;2093240;28;20155;-82
2024/03/20 02:08:23;;;;;;;52.78;31.25;;;;;;;;;;2094743;28;20911;-81
2024/03/20 02:09:24;;;;;;;;;;;;;;;;;;2097840;28;20087;-82
2024/03/20 02:10:25;;;;;;;46.97;29.20;;;;;;;;;;2095933;28;20335;-82
2024/03/20 02:11:26;;;;;;;;;;;;;;;;;;2095835;28;20055;-83
2024/03/20 02:12:27;;;;;;;50.25;29.38;;;;;;;;;;2092521;28;19927;-81
2024/03/20 02:13:28;;;;;;;48.90;30.02;;;;;;;;;;2097216;28;20528;-83
2024/03/20 02:14:29;;;;;;;;;;;;;;;;;;2095932;28;20055;-83
2024/03/20 02:15:32;;;;;;;45.50;29.15;;;;;;;;;;2093931;28;19973;-84
2024/03/20 02:16:34;;;;;;;51.92;32.58;;;;;;;;;;2094289;28;20067;-84
2024/03/20 02:17:35;;;;;;;53.97;32.55;;;;;;;;;;2096594;28;20406;-82
2024/03/20 02:18:36;;;;;;;54.28;32.58;;;;;;;;;;2097505;28;20057;-82
2024/03/20 02:19:37;;;;;;;;;;;;;;;;;;2094274;28;20076;-81
2024/03/20 02:20:38;;;;;;;49.05;30.08;;;;;;;;;;2094682;28;19928;-82
2024/03/20 02:21:41;;;;;;;;;;;;;;;;;;2096190;28;20493;-81
2024/03/20 02:22:42;;;;;;;53.20;31.38;;;;;;;;;;2097492;28;19924;-81
2024/03/20 02:23:44;;;;;;;54.35;31.52;;;;;;;;;;2096175;28;20107;-81
2024/03/20 02:24:44;;;;;;;52.33;32.38;;;;;;;;;;2099293;28;20040;-83
2024/03/20 02:25:45;;;;;;;;;;;;;;;;;;2100298;28;20052;-83
2024/03/20 02:26:46;;;;;;;50.60;31.52;;;;;;;;;;2095729;28;20011;-83
2024/03/20 02:27:47;;;;;;;51.33;31.17;;;;;;;;;;2095833;28;20056;-82
2024/03/20 02:28:48;;;;;;;;;;;;;;;;;;2092542;28;20073;-85
2024/03/20 02:29:49;;;;;;;52.33;31.25;;;;;;;;;;2093101;28;20410;-81
2024/03/20 02:30:50;;;;;;;;;;;;;;;;;;2094464;28;20074;-81
2024/03/20 02:31:51;;;;;;;56.40;31.63;;;;;;;;;;2096045;28;19924;-83
2024/03/20 02:32:52;;;;;;;;;;;;;;;;;;2095555;28;20048;-82
2024/03/20 02:33:53;;;;;;;54.58;31.15;;;;;;;;;;2095053;28;19927;-81
2024/03/20 02:34:55;;;;;;;53.95;31.67;;;;;;;;;;2094145;28;20045;-82
2024/03/20 02:35:56;;;;;;;54.33;32.15;;;;;;;;;;2096555;28;20049;-82
2024/03/20 02:36:58;;;;;;;;;;;;;;;;;;2095249;28;20118;-82
2024/03/20 02:37:59;;;;;;;54.75;32.85;;;;;;;;;;2093968;28;20360;-82
2024/03/20 02:39:01;;;;;;;;;;;;;;;;;;2099540;28;20091;-81
2024/03/20 02:40:01;;;;;;;58.60;33.17;;;;;;;;;;2096826;28;20059;-81
2024/03/20 02:41:03;;;;;;;;;;;;;;;;;;2094468;28;20048;-81
2024/03/20 02:42:03;;;;;;;53.53;32.78;;;;;;;;;;2093629;28;19920;-82
2024/03/20 02:43:05;;;;;;;;;;;;;;;;;;2095403;28;20464;-81
2024/03/20 02:44:05;;;;;;;55.00;32.75;;;;;;;;;;2096935;28;19989;-81
2024/03/20 02:45:07;;;;;;;;;;;;;;;;;;2094498;28;20080;-82
2024/03/20 02:46:08;;;;;;;55.65;32.28;;;;;;;;;;2094723;28;19935;-82
2024/03/20 02:47:09;;;;;;;;;;;;;;;;;;2095848;28;20072;-81
2024/03/20 02:48:10;;;;;;;56.38;32.70;;;;;;;;;;2092543;28;19921;-81
2024/03/20 02:49:11;;;;;;;;;;;;;;;;;;2094598;28;20114;-81
2024/03/20 02:50:12;;;;;;;61.03;35.40;;;;;;;;;;2095416;28;19916;-82
2024/03/20 02:51:13;;;;;;;60.78;34.85;;;;;;;;;;2094563;28;20044;-81
2024/03/20 02:52:18;;;;;;;;;;;;;;;;;;2095267;28;20546;-82
2024/03/20 02:53:18;;;;;;;62.28;35.25;;;;;;;;;;2097904;28;20450;-82
2024/03/20 02:54:19;;;;;;;;;;;;;;;;;;2097439;28;20173;-81
2024/03/20 02:55:21;;;;;;;56.37;32.93;;;;;;;;;;2093018;28;20361;-81
2024/03/20 02:56:21;;;;;;;63.22;36.38;;;;;;;;;;2093655;28;20051;-80
2024/03/20 02:57:23;;;;;;;;;;;;;;;;;;2094134;28;20131;-80
2024/03/20 02:58:23;;;;;;;57.92;34.83;;;;;;;;;;2095613;28;19973;-82
2024/03/20 02:59:25;;;;;;;;;;;;;;;;;;2094494;28;20044;-82
2024/03/20 03:00:26;;;;;;;56.33;34.65;;;;;;;;;;2093621;28;19965;-82
2024/03/20 03:01:27;;;;;;;;;;;;;;;;;;2093170;28;20584;-83
2024/03/20 03:02:27;;;;;;;56.25;33.63;;;;;;;;;;2097065;28;20247;-82
2024/03/20 03:03:29;;;;;;;;;;;;;;;;;;2096235;28;20074;-81
2024/03/20 03:04:29;;;;;;;56.13;33.50;;;;;;;;;;2094833;28;20385;-83
2024/03/20 03:05:30;;;;;;;;;;;;;;;;;;2096368;28;20091;-82
2024/03/20 03:06:31;;;;;;;62.10;35.40;;;;;;;;;;2093384;28;19916;-84
2024/03/20 03:07:34;;;;;;;64.25;37.80;;;;;;;;;;2096488;28;20048;-81
2024/03/20 03:08:35;;;;;;;62.22;37.20;;;;;;;;;;2094152;28;20055;-81
2024/03/20 03:09:37;;;;;;;61.38;37.30;;;;;;;;;;2095174;28;20418;-83
2024/03/20 03:10:38;;;;;;;64.13;38.28;;;;;;;;;;2094800;28;20048;-84
2024/03/20 03:11:39;;;;;;;60.85;37.70;;;;;;;;;;2095140;28;20051;-83
2024/03/20 03:12:40;;;;;;;;;;;;;;;;;;2096309;28;20064;-83
2024/03/20 03:13:41;;;;;;;59.88;36.42;;;;;;;;;;2093139;28;19932;-82
2024/03/20 03:14:43;;;;;;;;;;;;;;;;;;2096059;28;20143;-81
2024/03/20 03:15:43;;;;;;;56.88;36.22;;;;;;;;;;2093889;28;19965;-82
2024/03/20 03:16:44;;;;;;;;;;;;;;;;;;2095485;28;20090;-83
2024/03/20 03:17:46;;;;;;;63.23;36.07;;;;;;;;;;2099270;28;19924;-81
2024/03/20 03:18:47;;;;;;;68.45;38.50;;;;;;;;;;2094947;28;20048;-82
2024/03/20 03:19:48;;;;;;;;;;;;;;;;;;2094506;28;20431;-81
2024/03/20 03:20:49;;;;;;;63.55;37.35;;;;;;;;;;2096931;28;19931;-81
2024/03/20 03:21:50;;;;;;;;;;;;;;;;;;2098257;28;20076;-81
2024/03/20 03:22:53;;;;;;;63.13;36.80;;;;;;;;;;2096323;28;19928;-82
2024/03/20 03:23:53;;;;;;;67.32;40.38;;;;;;;;;;2094945;28;20362;-83
2024/03/20 03:24:55;;;;;;;;;;;;;;;;;;2096393;28;20082;-83
2024/03/20 03:25:56;;;;;;;67.68;38.47;;;;;;;;;;2094791;28;20444;-82
2024/03/20 03:26:57;;;;;;;;;;;;;;;;;;2094715;28;20106;-81
2024/03/20 03:27:58;;;;;;;66.85;39.53;;;;;;;;;;2092836;28;19921;-81
2024/03/20 03:29:00;;;;;;;;;;;;;;;;;;2096634;28;20482;-81
2024/03/20 03:30:00;;;;;;;;;;;;;;;;;;2095174;28;19997;-83
2024/03/20 03:31:02;;;;;;;69.33;38.97;;;;;;;;;;2096782;28;19928;-81
2024/03/20 03:32:02;;;;;;;71.07;40.30;;;;;;;;;;2092919;28;20045;-82
2024/03/20 03:33:04;;;;;;;;;;;;;;;;;;2092343;28;20105;-81
2024/03/20 03:34:04;;;;;;;68.63;39.33;;;;;;;;;;2094008;28;19924;-81
2024/03/20 03:35:05;;;;;;;;;;;;;;;;;;2094661;28;20670;-81
2024/03/20 03:36:07;;;;;;;71.72;40.40;;;;;;;;;;2093889;28;19992;-81
2024/03/20 03:37:08;;;;;;;70.70;41.22;;;;;;;;;;2094813;28;20044;-83
2024/03/20 03:38:10;;;;;;;;;;;;;;;;;;2091209;28;20102;-82
2024/03/20 03:39:11;;;;;;;70.22;40.35;;;;;;;;;;2095910;28;19966;-81
2024/03/20 03:40:13;;;;;;;;;;;;;;;;;;2092639;28;20490;-82
2024/03/20 03:41:13;;;;;;;66.93;40.22;;;;;;;;;;2094947;28;20433;-81
2024/03/20 03:42:15;;;;;;;70.93;41.08;;;;;;;;;;2094121;28;20189;-83
2024/03/20 03:43:15;;;;;;;70.35;41.55;;;;;;;;;;2093656;28;20048;-81
2024/03/20 03:44:17;;;;;;;;;;;;;;;;;;2095890;28;20127;-82
2024/03/20 03:45:18;;;;;;;72.85;41.22;;;;;;;;;;2097031;28;19931;-82
2024/03/20 03:46:20;;;;;;;69.85;41.95;;;;;;;;;;2092867;28;20087;-81
2024/03/20 03:47:21;;;;;;;77.05;42.42;;;;;;;;;;2094901;28;20048;-82
2024/03/20 03:48:23;;;;;;;;;;;;;;;;;;2093832;28;20123;-82
2024/03/20 03:49:23;;;;;;;;;;;;;;;;;;2093475;28;20693;-80
2024/03/20 03:50:25;;;;;;;73.20;40.70;;;;;;;;;;2095312;28;19966;-83
2024/03/20 03:51:25;;;;;;;76.65;41.65;;;;;;;;;;2093408;28;20043;-82
2024/03/20 03:52:26;;;;;;;;;;;;;;;;;;2094388;28;20500;-82
2024/03/20 03:53:29;;;;;;;70.93;41.78;;;;;;;;;;2098259;28;19920;-82
2024/03/20 03:54:30;;;;;;;70.30;39.20;;;;;;;;;;2097755;28;20135;-82
2024/03/20 03:55:31;;;;;;;;;;;;;;;;;;2096506;28;20040;-82
2024/03/20 03:56:32;;;;;;;69.90;40.33;;;;;;;;;;2094838;28;19920;-81
2024/03/20 03:57:33;;;;;;;72.20;41.40;;;;;;;;;;2097355;28;20415;-81
2024/03/20 03:58:34;;;;;;;;;;;;;;;;;;2096100;28;20472;-81
2024/03/20 03:59:35;;;;;;;73.35;41.65;;;;;;;;;;2094925;28;19921;-81
2024/03/20 04:00:36;;;;;;;;;;;;;;;;;;2094409;28;20123;-82
2024/03/20 04:01:37;;;;;;;70.55;39.20;;;;;;;;;;2093112;28;19924;-82
2024/03/20 04:02:39;;;;;;;72.95;41.20;;;;;;;;;;2094146;28;20485;-81
2024/03/20 04:03:39;;;;;;;70.38;41.50;;;;;;;;;;2093549;28;20045;-80
2024/03/20 04:04:40;;;;;;;;;;;;;;;;;;2095180;28;20480;-81
2024/03/20 04:05:41;;;;;;;69.03;40.37;;;;;;;;;;2096239;28;20417;-83
2024/03/20 04:06:43;;;;;;;74.68;42.83;;;;;;;;;;2093446;28;20566;-82
2024/03/20 04:07:43;;;;;;;74.95;42.58;;;;;;;;;;2091208;28;20087;-81
2024/03/20 04:08:46;;;;;;;;;;;;;;;;;;2093881;28;20518;-83
2024/03/20 04:09:46;;;;;;;72.88;41.63;;;;;;;;;;2095439;28;19924;-84
2024/03/20 04:10:47;;;;;;;;;;;;;;;;;;2094342;28;20083;-81
2024/03/20 04:11:49;;;;;;;70.80;40.45;;;;;;;;;;2095839;28;19952;-83
2024/03/20 04:12:49;;;;;;;72.93;41.67;;;;;;;;;;2094131;28;20623;-83
2024/03/20 04:13:50;;;;;;;;;;;;;;;;;;2096312;28;20041;-82
2024/03/20 04:14:51;;;;;;;69.47;39.67;;;;;;;;;;2093902;28;19924;-82
2024/03/20 04:15:52;;;;;;;70.45;41.63;;;;;;;;;;2092786;28;20454;-83
2024/03/20 04:16:54;;;;;;;;;;;;;;;;;;2096689;28;20055;-83
2024/03/20 04:17:54;;;;;;;70.90;40.70;;;;;;;;;;2096172;28;19931;-83
2024/03/20 04:18:56;;;;;;;;;;;;;;;;;;2095106;28;20541;-81
2024/03/20 04:19:56;;;;;;;71.80;40.50;;;;;;;;;;2093350;28;20329;-83
2024/03/20 04:20:58;;;;;;;;;;;;;;;;;;2095543;28;20044;-83
2024/03/20 04:21:59;;;;;;;68.88;40.63;;;;;;;;;;2093093;28;19920;-83
2024/03/20 04:22:59;;;;;;;;;;;;;;;;;;2096543;28;20207;-83
2024/03/20 04:24:02;;;;;;;70.17;39.53;;;;;;;;;;2094229;28;20039;-81
2024/03/20 04:25:04;;;;;;;69.45;40.88;;;;;;;;;;2094342;28;20049;-82
2024/03/20 04:26:06;;;;;;;70.18;41.83;;;;;;;;;;2084389;28;20052;-82
2024/03/20 04:27:07;;;;;;;73.68;41.33;;;;;;;;;;2085538;28;20056;-83
2024/03/20 04:28:09;;;;;;;;;;;;;;;;;;2084793;28;20120;-83
2024/03/20 04:29:10;;;;;;;70.38;40.67;;;;;;;;;;2088608;28;20020;-82
2024/03/20 04:30:13;;;;;;;72.18;42.30;;;;;;;;;;2085511;28;20052;-82
2024/03/20 04:31:15;;;;;;;76.97;42.78;;;;;;;;;;2084610;28;20176;-81
2024/03/20 04:32:17;;;;;;;72.15;42.42;;;;;;;;;;2084604;28;20045;-81
2024/03/20 04:33:18;;;;;;;72.93;43.58;;;;;;;;;;2086610;28;20355;-81
2024/03/20 04:34:19;;;;;;;;;;;;;;;;;;2086567;28;20131;-81
2024/03/20 04:35:20;;;;;;;71.05;40.70;;;;;;;;;;2085441;28;19924;-80
2024/03/20 04:36:21;;;;;;;;;;;;;;;;;;2087234;28;20048;-81
2024/03/20 04:37:22;;;;;;;72.80;41.63;;;;;;;;;;2084252;28;19928;-82
2024/03/20 04:38:24;;;;;;;;;;;;;;;;;;2084510;28;20072;-83
2024/03/20 04:39:30;;;;;;;69.38;39.45;;;;;;;;;;2085704;28;19931;-82
2024/03/20 04:40:31;;;;;;;68.30;40.22;;;;;;;;;;2089241;28;20134;-83
2024/03/20 04:41:31;;;;;;;;;;;;;;;;;;2086039;28;20051;-81
2024/03/20 04:42:33;;;;;;;74.45;40.47;;;;;;;;;;2086359;28;19920;-83
2024/03/20 04:43:34;;;;;;;70.80;40.40;;;;;;;;;;2090019;28;20053;-82
2024/03/20 04:44:35;;;;;;;;;;;;;;;;;;2095997;28;20559;-81
2024/03/20 04:45:36;;;;;;;66.97;39.55;;;;;;;;;;2090801;28;19931;-82
2024/03/20 04:46:37;;;;;;;;;;;;;;;;;;2094073;28;20527;-82
2024/03/20 04:47:38;;;;;;;68.15;38.83;;;;;;;;;;2091290;28;20335;-82
2024/03/20 04:48:39;;;;;;;;;;;;;;;;;;2093330;28;20044;-82
2024/03/20 04:49:40;;;;;;;67.40;40.00;;;;;;;;;;2092887;28;19925;-81
2024/03/20 04:50:41;;;;;;;;;;;;;;;;;;2095202;28;20048;-82
2024/03/20 04:51:42;;;;;;;69.25;39.75;;;;;;;;;;2095561;28;19920;-81
2024/03/20 04:52:42;;;;;;;;;;;;;;;;;;2093431;28;20108;-81
2024/03/20 04:53:44;;;;;;;71.30;39.13;;;;;;;;;;2094900;28;19916;-83
2024/03/20 04:54:46;;;;;;;70.55;40.22;;;;;;;;;;2097220;28;20043;-81
2024/03/20 04:55:48;;;;;;;67.25;39.63;;;;;;;;;;2095898;28;20050;-83
2024/03/20 04:56:49;;;;;;;67.10;38.47;;;;;;;;;;2095373;28;20431;-80
2024/03/20 04:57:50;;;;;;;;;;;;;;;;;;2098912;28;20075;-82
2024/03/20 04:58:51;;;;;;;64.50;38.15;;;;;;;;;;2097569;28;19924;-82
2024/03/20 04:59:51;;;;;;;;;;;;;;;;;;2095685;28;20098;-83
2024/03/20 05:00:53;;;;;;;69.20;39.37;;;;;;;;;;2095612;28;19916;-83
2024/03/20 05:01:53;;;;;;;68.65;41.65;;;;;;;;;;2093853;28;20041;-83
2024/03/20 05:02:55;;;;;;;;;;;;;;;;;;2095364;28;20052;-83
2024/03/20 05:03:55;;;;;;;69.00;40.03;;;;;;;;;;2092358;28;19933;-84
2024/03/20 05:04:56;;;;;;;;;;;;;;;;;;2094323;28;20111;-84
2024/03/20 05:05:58;;;;;;;67.82;39.38;;;;;;;;;;2095457;28;19924;-83
2024/03/20 05:06:59;;;;;;;;;;;;;;;;;;2097366;28;20123;-83
2024/03/20 05:08:00;;;;;;;67.75;39.65;;;;;;;;;;2094596;28;19924;-84
2024/03/20 05:09:01;;;;;;;;;;;;;;;;;;2095799;28;20135;-83
2024/03/20 05:10:04;;;;;;;63.58;37.58;;;;;;;;;;2094902;28;19932;-85
2024/03/20 05:11:05;;;;;;;69.55;38.65;;;;;;;;;;2095020;28;20151;-83
2024/03/20 05:12:06;;;;;;;;;;;;;;;;;;2097346;28;20052;-85
2024/03/20 05:13:07;;;;;;;74.35;41.10;;;;;;;;;;2093315;28;19963;-84
2024/03/20 05:14:07;;;;;;;;;;;;;;;;;;2095412;28;20546;-84
2024/03/20 05:15:10;;;;;;;67.88;38.70;;;;;;;;;;2093949;28;19917;-83
2024/03/20 05:16:10;;;;;;;68.05;39.75;;;;;;;;;;2092649;28;20125;-82
2024/03/20 05:17:11;;;;;;;;;;;;;;;;;;2095591;28;20472;-83
2024/03/20 05:18:12;;;;;;;69.93;39.88;;;;;;;;;;2092439;28;19921;-80
2024/03/20 05:19:13;;;;;;;69.20;39.50;;;;;;;;;;2090746;28;20719;-82
2024/03/20 05:20:15;;;;;;;;;;;;;;;;;;2094052;28;20076;-81
2024/03/20 05:21:16;;;;;;;64.47;38.70;;;;;;;;;;2094816;28;19916;-81
2024/03/20 05:22:17;;;;;;;71.68;40.53;;;;;;;;;;2092907;28;20036;-81
2024/03/20 05:23:17;;;;;;;;;;;;;;;;;;2094990;28;20080;-81
2024/03/20 05:24:19;;;;;;;66.23;39.80;;;;;;;;;;2096938;28;20277;-82
2024/03/20 05:25:22;;;;;;;68.05;40.25;;;;;;;;;;2091810;28;20048;-82
2024/03/20 05:26:23;;;;;;;67.85;40.67;;;;;;;;;;2095011;28;20113;-80
2024/03/20 05:27:23;;;;;;;;;;;;;;;;;;2095843;28;20552;-82
2024/03/20 05:28:25;;;;;;;72.85;40.28;;;;;;;;;;2090971;28;20294;-81
2024/03/20 05:29:26;;;;;;;72.63;41.15;;;;;;;;;;2087158;28;20048;-81
2024/03/20 05:30:26;;;;;;;;;;;;;;;;;;2085629;28;20599;-81
2024/03/20 05:31:29;;;;;;;70.03;40.37;;;;;;;;;;2089823;28;19925;-82
2024/03/20 05:32:30;;;;;;;72.22;42.03;;;;;;;;;;2092725;28;20460;-82
2024/03/20 05:33:30;;;;;;;;;;;;;;;;;;2095009;28;20123;-81
2024/03/20 05:34:31;;;;;;;75.50;39.70;;;;;;;;;;2093906;28;19932;-81
2024/03/20 05:35:32;;;;;;;;;;;;;;;;;;2093853;28;20055;-81
2024/03/20 05:36:33;;;;;;;69.68;39.17;;;;;;;;;;2094470;28;19924;-83
2024/03/20 05:37:34;;;;;;;;;;;;;;;;;;2093821;28;20052;-84
2024/03/20 05:38:35;;;;;;;73.18;40.40;;;;;;;;;;2095329;28;20366;-83
2024/03/20 05:39:36;;;;;;;70.80;39.35;;;;;;;;;;2093234;28;20629;-83
2024/03/20 05:40:37;;;;;;;;;;;;;;;;;;2092349;28;20103;-83
2024/03/20 05:41:38;;;;;;;68.32;39.03;;;;;;;;;;2094223;28;20449;-83
2024/03/20 05:42:40;;;;;;;;;;;;;;;;;;2095409;28;20057;-84
2024/03/20 05:43:40;;;;;;;64.57;37.70;;;;;;;;;;2094030;28;19924;-85
2024/03/20 05:44:41;;;;;;;;;;;;;;;;;;2095675;28;20136;-82
2024/03/20 05:45:41;;;;;;;68.53;38.83;;;;;;;;;;2094938;28;19920;-83
2024/03/20 05:46:44;;;;;;;;;;;;;;;;;;2094498;28;20060;-83
2024/03/20 05:47:44;;;;;;;68.00;37.35;;;;;;;;;;2093736;28;19921;-83
2024/03/20 05:48:45;;;;;;;;;;;;;;;;;;2097890;28;20053;-85
2024/03/20 05:49:46;;;;;;;66.38;37.15;;;;;;;;;;2094203;28;20484;-84
2024/03/20 05:50:47;;;;;;;65.07;38.15;;;;;;;;;;2094572;28;20072;-83
2024/03/20 05:51:47;;;;;;;;;;;;;;;;;;2095542;28;20050;-83
2024/03/20 05:52:48;;;;;;;64.72;36.53;;;;;;;;;;2095052;28;19956;-83
2024/03/20 05:53:50;;;;;;;63.88;38.08;;;;;;;;;;2096313;28;20086;-84
2024/03/20 05:54:51;;;;;;;66.57;38.35;;;;;;;;;;2097196;28;20109;-84
2024/03/20 05:55:53;;;;;;;;;;;;;;;;;;2094029;28;20139;-84
2024/03/20 05:56:54;;;;;;;64.78;37.30;;;;;;;;;;2097993;28;19935;-83
2024/03/20 05:57:55;;;;;;;;;;;;;;;;;;2100334;28;20635;-84
2024/03/20 05:58:56;;;;;;;64.10;35.75;;;;;;;;;;2096274;28;19927;-84
2024/03/20 05:59:56;;;;;;;;;;;;;;;;;;2096595;28;20072;-83
2024/03/20 06:00:57;;;;;;;65.00;35.70;;;;;;;;;;2096227;28;19958;-84
2024/03/20 06:01:59;;;;;;;;;;;;;;;;;;2095436;28;20468;-83
2024/03/20 06:02:59;;;;;;;58.95;34.90;;;;;;;;;;2096305;28;19928;-85
2024/03/20 06:04:00;;;;;;;;;;;;;;;;;;2095900;28;20088;-83
2024/03/20 06:05:01;;;;;;;63.05;36.28;;;;;;;;;;2095847;28;19920;-83
2024/03/20 06:06:02;;;;;;;66.85;36.40;;;;;;;;;;2096644;28;20105;-83
2024/03/20 06:07:04;;;;;;;;;;;;;;;;;;2097358;28;20105;-84
2024/03/20 06:08:05;;;;;;;65.57;36.20;;;;;;;;;;2096410;28;20040;-84
2024/03/20 06:09:10;;;;;;;;;;;;;;;;;;2097635;28;20513;-83
2024/03/20 06:10:12;;;;;;;60.38;33.95;;;;;;;;;;2094698;28;20173;-84
2024/03/20 06:11:14;;;;;;;62.70;36.42;;;;;;;;;;2095042;28;20053;-83
2024/03/20 06:12:16;;;;;;;57.90;34.78;;;;;;;;;;2097263;28;20101;-85
2024/03/20 06:13:18;;;;;;;57.50;35.70;;;;;;;;;;2095970;28;20537;-84
2024/03/20 06:14:18;;;;;;;;;;;;;;;;;;2095497;28;20049;-83
2024/03/20 06:15:19;;;;;;;55.15;32.17;;;;;;;;;;2094687;28;19942;-83
2024/03/20 06:16:20;;;;;;;;;;;;;;;;;;2097111;28;20052;-84